WXBOT messages


fromtotime message
KE9DKF-4 WXBOT 09/01 21:08:19z Reply Tonight{282C1
WXBOT K4VBX 09/01 21:06:46z Send another d:110@12,mostly cloudy
WXBOT K4VBX 09/01 21:06:41z Send another Currently at Virginia Beach, Oceana, Naval Air Station, Temp:90 win
K4VBX WXBOT 09/01 21:06:32z Reply knto now{PB}
WXBOT W7HRM-15 09/01 20:55:59z Send another Port Angeles WA. Thursday,Rain Likely 70% High 59
W7HRM-15 WXBOT 09/01 20:55:53z Reply 98362 Thursday {7
W7HRM-15 WXBOT 09/01 20:53:06z Reply 98362 tomorrow {6
WXBOT W7HRM-15 09/01 20:51:15z Send another igh 60
WXBOT W7HRM-15 09/01 20:51:10z Send another Port Angeles WA. Wednesday,Chance Showers then Showers Likely 70% H
ZL1CTS WXBOT 09/01 20:35:47z Reply nearest{9537
WXBOT KD3BKO-4 09/01 20:31:34z Send another Atlantic Beach SC. Tonight,Mostly Clear Low 78
KD3BKO-4 WXBOT 09/01 20:31:26z Reply Today{C1ABA
WXBOT KD3BKO-4 09/01 20:28:36z Send another hwest wind 5 to 9 mph.
WXBOT KD3BKO-4 09/01 20:28:30z Send another Atlantic Beach SC. Tonight,Mostly clear, with a low around 78. Sout
KD3BKO-4 WXBOT 09/01 20:28:22z Reply Today full{C2083
KD3BKO-4 WXBOT 09/01 20:27:47z Reply ?{F2D07
WXBOT KF0WCB-7 09/01 20:19:42z Send another 2 Miles NNW Longmont CO. This Afternoon,Slight Chance T-storms 20%
WXBOT W7HRM-15 09/01 20:11:19z Send another Port Angeles WA. This Afternoon,Partly Sunny High 64
W7HRM-15 WXBOT 09/01 20:11:13z Reply 98362{4
RGSTRY WXBOT 09/01 20:08:25z Reply ?{5643
WXBOT W6SMV-4 09/01 19:55:54z Send another 3. West wind 10 to 15 mph, with gusts as high as 20 mph.
WXBOT W6SMV-4 09/01 19:55:49z Send another 2 Miles NW Pismo Beach CA. This Afternoon,Sunny, with a high near 6
W6SMV-4 WXBOT 09/01 19:55:41z Reply 93449 FULL{7
WXBOT W8IJC-7 09/01 19:45:46z Send another Cloudy then Chance T-storms 30% Low 71
WXBOT W8IJC-7 09/01 19:45:41z Send another 2 Miles WNW Pierpont OH. Hazardous Weather Outlook, Tonight,Partly
K8AAV-1 WXBOT 09/01 19:27:32z Reply 49519 today brief{3
WXBOT K8AAV-1 09/01 19:23:27z Send another Wyoming MI. This Afternoon,Slight Chance T-storms 20% High 88
WXBOT KA4YMY-9 09/01 19:16:04z Send another GW4444 79,wind:338@8 g17,1020.0mbar,rh:45%,rain:none
KA4YMY-9 WXBOT 09/01 19:15:57z Reply gw4444{3
RGSTRY WXBOT 09/01 19:08:25z Reply ?{5599
WXBOT KI7WKZ-7 09/01 19:00:06z Send another 4 Miles S Gladstone OR. This Afternoon,Partly Sunny High 73
WXBOT AB5D-1 09/01 18:56:19z Send another southeast wind around 5 mph.
WXBOT AB5D-1 09/01 18:56:14z Send another d hot, with a high near 99. Heat index values as high as 104. East
WXBOT AB5D-1 09/01 18:56:09z Send another fternoon,A 10 percent chance of showers after 4pm. Mostly sunny an
WXBOT KC3YOI-1 09/01 18:55:16z Send another Showers Likely 60% High 77
KC3YOI-1 WXBOT 09/01 18:55:04z Reply Brackney, PA{052
WXBOT KA4YMY-9 09/01 18:49:51z Send another Bloomfield NJ. Hazardous Weather Outlook, This Afternoon,Showers 80
KA4YMY-9 WXBOT 09/01 18:49:44z Reply 07003{30
WXBOT WZ4JM-15 09/01 18:40:12z Send another s possible in thunderstorms.
WXBOT WZ4JM-15 09/01 18:40:07z Send another mounts between a tenth and quarter of an inch, except higher amount
WXBOT WZ4JM-15 09/01 18:40:02z Send another as high as 15 mph. Chance of precipitation is 60%. New rainfall a
WXBOT WZ4JM-15 09/01 18:39:57z Send another loudy, with a high near 89. Northeast wind around 7 mph, with gusts
WXBOT WZ4JM-15 09/01 18:39:52z Send another rnoon,Showers and thunderstorms likely, mainly after 5pm. Mostly c
WXBOT WZ4JM-15 09/01 18:39:47z Send another 9 Miles S Ocala Municipal Automatic Weather Observing FL. This Afte
WZ4JM-15 WXBOT 09/01 18:39:39z Reply full{047
WXBOT K4JOZ-11 09/01 18:37:46z Send another hot, with a high near 92. Heat index values as high as 98. Calm win
WXBOT K4JOZ-11 09/01 18:37:41z Send another Whitesburg TN. Hazardous Weather Outlook, This Afternoon,Sunny and
K4JOZ-11 WXBOT 09/01 18:37:34z Reply 37891 Full{2089
WXBOT KJ5IMV-5 09/01 18:32:27z Send another Opelousas LA. This Afternoon,T-storms Likely 60% High 91
KJ5IMV-5 WXBOT 09/01 18:32:20z Reply 70570{015
WXBOT KJ5IMV-1 09/01 18:30:38z Send another 4 Miles WNW Barker TX. Flood Watch, This Afternoon,Showers Likely 6
KJ5IMV-1 WXBOT 09/01 18:30:32z Reply 77493{016
KJ5IMV-5 WXBOT 09/01 18:28:17z Reply 70570{020
KJ5IMV-5 WXBOT 09/01 18:28:16z Reply 70570{019
KJ5IMV-5 WXBOT 09/01 18:27:26z Reply 77493{014
WXBOT KD4DRA-10 09/01 18:26:56z Send another 3 Miles SW Simpsonville SC. This Afternoon,Hot High 95
KD4DRA-10 WXBOT 09/01 18:26:50z Reply 29680{001
KJ5IMV-5 WXBOT 09/01 18:25:46z Reply 77493{012
KJ5IMV-5 WXBOT 09/01 18:20:19z Reply 77493{011
WXBOT KD3DKY-7 09/01 18:12:11z Send another Sunny High 88
KD3DKY-7 WXBOT 09/01 18:12:00z Reply 16066{35
WXBOT KI7WKZ 09/01 18:11:01z Send another 2 Miles NE Canby OR. Today,Partly Sunny High 75
RGSTRY WXBOT 09/01 18:08:25z Reply ?{5555
KD3DKY-7 WXBOT 09/01 18:06:55z Reply 16066{33
WXBOT KI7DAN 09/01 17:57:38z Send another ostly Clear 10% Low 66
WXBOT KI7DAN 09/01 17:57:33z Send another 4 Miles E South Salt Lake UT. Tonight,Slight Chance T-storms then M
KI7DAN WXBOT 09/01 17:57:27z Reply tonight 84109{4632
KC3NOH WXBOT 09/01 17:44:25z Reply Today{7763
WXBOT KM7GHQ-4 09/01 17:43:41z Send another Bandon OR. Today,Slight Chance Rain then Partly Sunny 20% High 65
KM7GHQ-4 WXBOT 09/01 17:43:32z Reply WXBOT: Today {48
WXBOT KA4YMY-9 09/01 17:42:26z Send another 2 Miles S Derita NC. Air Quality Alert, This Afternoon,Hot High 96
KA4YMY-9 WXBOT 09/01 17:42:15z Reply 28201{0
WXBOT KO6FFZ 09/01 17:39:36z Send another 2 Miles WSW Downtown L.A. CA. Today,Sunny High 80
KA4YMY-9 WXBOT 09/01 17:37:59z Reply 28054{98
WXBOT KA4YMY-9 09/01 17:36:45z Send another 2 Miles NE Gastonia Municipal Airport NC. This Afternoon,Hot High 9
KA4YMY-9 WXBOT 09/01 17:36:38z Reply 28056{97
KJ5IMV-5 WXBOT 09/01 17:32:53z Reply 77493{005
KJ5IMV-5 WXBOT 09/01 17:31:14z Reply Katy, tx{004
KJ5IMV-5 WXBOT 09/01 17:29:13z Reply 77493{003
WXBOT KJ5IMV-5 09/01 17:27:54z Send another igh 95
WXBOT KJ5IMV-5 09/01 17:27:49z Send another 4 Miles S Katy TX. Flood Watch, This Afternoon,Showers Likely 60% H
KJ5IMV-5 WXBOT 09/01 17:27:43z Reply 77494{002
WXBOT KC3NOH 09/01 17:26:12z Send another Sykesville MD. This Afternoon,Slight Chance T-storms 20% High 89
KC3NOH WXBOT 09/01 17:26:04z Reply Today{9164
WXBOT DG0SGW 09/01 17:11:24z Send another Sorry, unable to get a forecast for location 46.60883/11.1455
DG0SGW WXBOT 09/01 17:11:16z Reply today
WXBOT KD3BKO-4 09/01 16:55:40z Send another Atlantic Beach SC. This Afternoon,Sunny High 86
KD3BKO-4 WXBOT 09/01 16:43:17z Reply today{8A544
WXBOT K7TEJ-9 09/01 16:33:08z Send another FW7674 89,wind:43@4 g4,1016.2mbar,rh:45%,rain:none
WXBOT KE8VLY-9 09/01 16:29:27z Send another t wind around 9 mph.
WXBOT KE8VLY-9 09/01 16:29:22z Send another ly sunny, with a high near 90. Heat index values as high as 98. Wes
WXBOT KE8VLY-9 09/01 16:29:17z Send another Cuyahoga Heights OH. Hazardous Weather Outlook, This Afternoon,Most
KE8VLY-9 WXBOT 09/01 16:29:10z Reply 44125 full{45
WXBOT W8IJC-7 09/01 16:28:44z Send another 2 Miles WNW Pierpont OH. Hazardous Weather Outlook, This Afternoon,
WXBOT KJ7KUT-7 09/01 16:14:44z Send another Currently at Buckeye Municipal Airport, Temp:86 wind:110@13,clear
RGSTRY WXBOT 09/01 16:08:25z Reply ?{5467
WXBOT K7TEJ-9 09/01 15:34:42z Send another FW7674 87,wind:200@4 g4,1015.8mbar,rh:48%,rain:none
WXBOT K7TEJ-9 09/01 15:30:30z Send another FW7674 87,wind:calm,1016.0mbar,rh:49%,rain:none
WXBOT AK6AK-1 09/01 15:12:23z Send another 2 Miles ESE Poway CA. Today,Sunny High 86
WXBOT KC3YOI-1 09/01 15:11:51z Send another ikely 70% High 80